Ride Results

Wunderful Widgee 2012 (29-07-2012)
Ride distance: 80.0 km

Outcomes - Wunderful Widgee 2012 (29-07-2012)
Division No. of Entries Retired / DNE Completed Withdrawn Ineligible V/O Percentage Completed
HW 11 - 11 - - - 100.00%
MW 21 - 19 - - 2 90.48%
LW 12 - 9 2 - 1 75.00%
JN 8 - 5 - 1 2 62.50%
Totals 52 - 44 2 1 5 84.62%
Results - Wunderful Widgee 2012 (29-07-2012)
No. Rider Horse Place Time Leg Speeds Total
Km/Hr
H/R bpm
Heavyweight
35 Niels Lochtenberg Matta Mia Sadik 1 6:04:18 13.3, 13.0 13.18 35, 42, 47 (Avg:44)
37 Michael Shaw Midu Nemisis 2 6:20:42 12.5, 12.6 12.61 36, 43, 56 (Avg:49)
31 Greg Garred Shannonwood Sub 3 6:22:35 14.3, 11.1 12.55 35, 44, 60 (Avg:52)
33 Jaime Mansbridge Shannonwood Ezar 3 6:22:35 14.3, 11.1 12.55 35, 40, 48 (Avg:44)
12 Olaf Lochtenberg Widgerry Rayn 5 6:25:27 13.3, 11.6 12.45 40, 45, 53 (Avg:49)
11 Jake Gray Sandine Diesel 6 7:05:12 12.0, 10.5 11.29 36, 46, 44 (Avg:45)
21 Chris Nichols Bashan Memphis 7 7:09:32 11.8, 10.5 11.17 41, 45, 50 (Avg:47)
15 Anthony Wolgast Bellarine Ceetee 8 7:37:32 10.6, 10.3 10.49 38, 44, 54 (Avg:49)
44 Sue Clark Diamond Dew Argyle 9 7:45:34 11.4, 9.3 10.31 38, 41, 51 (Avg:46)
22 Matthias Lochthofen Bashan Captive 10 7:45:37 10.4, 10.1 10.31 30, 43, 46 (Avg:44)
32 Ben Herbert Jay 11 8:05:52 11.5, 8.6 9.88 37, 47, 50 (Avg:48)
Middleweight
52 Lee Cutler Polly 1 4:58:47 17.2, 15.0 16.07 34, 39, 48 (Avg:43)
14 Wayne McKinnon Dunbar Lexus 2 4:59:25 16.9, 15.1 16.03 32, 42, 45 (Avg:43)
50 Akhmed Pshunov Bashir 3 5:30:08 15.0, 14.0 14.54 42, 50, 57 (Avg:53)
29 Matthew Sample A'Landell Intent 3 5:30:08 15.0, 14.0 14.54 47, 50, 51 (Avg:50)
42 Laura Axsentieff Mt Tawonga Tranquil 5 6:15:14 13.3, 12.3 12.79 38, 50, 55 (Avg:52)
34 Anne Barlow Sa-Har Magnolia 5 6:15:14 14.3, 11.5 12.79 31, 38, 47 (Avg:42)
2 Caro de Boer Brookleigh Felicity 7 6:18:34 14.7, 11.1 12.68 44, 46, 42 (Avg:44)
13 Christal Rizk Dunbar Aramis 8 6:24:30 13.2, 11.7 12.48 36, 40, 43 (Avg:41)
47 Errol Watt Yul-Arai Hassan 8 6:24:30 13.3, 11.7 12.48 42, 42, 44 (Avg:43)
10 Stephen Gray Sultan 10 7:05:22 12.0, 10.5 11.28 36, 45, 43 (Avg:44)
20 Debbie Edwards Bashan Silver Nadeer 11 7:09:40 11.8, 10.5 11.17 32, 42, 47 (Avg:44)
17 Jacinta Stubbings Ffire Storm 11 7:09:40 11.8, 10.5 11.17 35, 43, 48 (Avg:45)
46 Charmaine Bond Bonds Addiction 13 7:26:46 12.6, 9.3 10.74 36, 45, 49 (Avg:47)
16 Wendy Thorsborne Dakar 13 7:26:46 11.6, 9.9 10.74 37, 36, 43 (Avg:39)
6 Barbara Woods Brookleigh Bailey 15 7:33:40 10.1, 11.1 10.58 43, 40, 44 (Avg:42)
41 Kelsey Irvine Valinor Park Ghazal 16 7:37:26 9.9, 11.1 10.49 44, 45, 47 (Avg:46)
3 Angela Head Valinor Park Deva 17 7:37:27 9.9, 11.1 10.49 39, 41, 39 (Avg:40)
43 Vicky Hazzard Lavendar Park Bacardi 18 7:45:35 11.4, 9.3 10.31 38, 42, 49 (Avg:45)
8 Julie Mohi Arabiana Banama 19 7:46:44 11.3, 9.3 10.28 33, 44, 49 (Avg:46)
53 Olga Bartlett Cingala Royalle Lame L1 0:00:00 9.4 - 34, 45 (Avg:45)
40 Kerrie McAuliffe Chatsworth Oscar Lame L1 0:00:00 11.6 - 35, 40 (Avg:40)
Lightweight
25 Fiona Fenech Bellarine Passiona 1 4:08:56 19.3, 19.2 19.28 36, 42, 45 (Avg:43)
51 Judy Battams Sommariva Malik 2 4:58:52 17.1, 15.1 16.06 41, 40, 45 (Avg:42)
36 Bobbi Lochtenberg Matta Mia Dayman 3 4:59:20 16.0, 16.0 16.04 36, 44, 46 (Avg:45)
39 Jeanna Maher Red Gum Trinket 3 4:59:20 16.9, 15.2 16.04 36, 40, 47 (Avg:43)
9 Leigh Rich Leondon Maritz 5 5:32:46 16.0, 13.1 14.42 36, 43, 45 (Avg:44)
27 Kaylea Maher Rose Gum Markarah 6 5:55:20 13.9, 13.0 13.51 42, 55, 58 (Avg:56)
23 Ute Jordan Golden Thunder 7 7:27:51 10.4, 10.9 10.72 34, 42, 46 (Avg:44)
24 Janelle Taylor Calico Jarkamarn 7 7:27:51 10.4, 10.9 10.72 31, 39, 39 (Avg:39)
4 Sue Sutcliffe Valinor Park Nishka 9 7:37:24 9.9, 11.1 10.49 36, 38, 39 (Avg:38)
1 Malin Olsson Shardell Hunter Lame L2 0:00:00 10.1, 11.1 - 37, 38, 43 (Avg:40)
26 Meleita Dart Cameo Rhodezia Widthdrawn L1 0:00:00 - - 34, 45 (Avg:45)
38 Karen Winkel Mt Eerwah Shazaam Widthdrawn L1 0:00:00 - - 33, 44 (Avg:44)
Junior
28 Tayla Hadzi Sample Park Zachary 1 6:36:36 12.0, 12.1 12.10 38, 36, 59 (Avg:47)
49 Sarah Huddleston Haaris 1 6:36:36 12.0, 12.1 12.10 34, 42, 43 (Avg:42)
48 Lainie Zischke Aloha Royalist 1 6:36:36 12.0, 12.1 12.10 36, 42, 51 (Avg:46)
18 Mel Simpson Storm 4 7:09:30 11.8, 10.5 11.18 30, 37, 45 (Avg:41)
7 Alissa Woods Gheerulla Ambition 5 7:33:42 10.1, 11.1 10.58 34, 41, 39 (Avg:40)
45 David Anderson Jnr Chantree Park Desert Prince Lame L2 0:00:00 16.8, 15.1 - 43, 42, 44 (Avg:43)
30 Jamie Green Miva Majnoun Disqualified L2 0:00:00 12.8, 12.1 - 31, 48, 48 (Avg:48)
5 Gemma Sutcliffe Talbarear Rapier Lame L1 0:00:00 9.9 - 37, 42 (Avg:42)